ADDS METAR Data INFO
IDs: Format: Raw Decoded Include TAF

Data at: 0454 UTC 21 Feb 2018

KMDD 201515Z AUTO 27004KT 10SM 17/02 A2991 RMK AO2 T01730017
KMDD 201455Z AUTO 27004KT 10SM 17/04 A2991 RMK AO2 T01650035
KMDD 201435Z AUTO 00000KT 10SM 16/06 A2990 RMK AO2 T01570059
KMDD 201415Z AUTO 00000KT 10SM 14/06 A2989 RMK AO2 T01380060
KMDD 201355Z AUTO 00000KT 10SM 14/06 A2988 RMK AO2 T01420059
KMDD 201335Z AUTO 00000KT 10SM 15/06 A2987 RMK AO2 T01520060
KMDD 201315Z AUTO 00000KT 10SM 16/06 A2985 RMK AO2 T01600062
KMDD 201255Z AUTO 23003KT 10SM 16/07 A2983 RMK AO2 T01610065
KMDD 201235Z AUTO 20005KT 10SM 16/08 A2983 RMK AO2 T01640075
KMDD 201215Z AUTO 19006KT 10SM 17/08 A2982 RMK AO2 T01680082
KMDD 201155Z AUTO 22008KT 10SM 18/09 A2981 RMK AO2 T01750086 10197 20175
KMDD 201135Z AUTO 23008KT 10SM 18/09 A2980 RMK AO2 T01750086
KMDD 201115Z AUTO 24006KT 10SM 18/09 A2979 RMK AO2 T01790085
KMDD 201055Z AUTO 21008KT 10SM 19/09 A2978 RMK AO2 T01870085
KMDD 201035Z AUTO 22009KT 10SM 19/09 A2978 RMK AO2 T01920085
KMDD 201015Z AUTO 22010KT 10SM 19/09 A2977 RMK AO2 T01920089
KMDD 200955Z AUTO 21009KT 10SM 19/10 A2976 RMK AO2 T01940099
KMDD 200935Z AUTO 20011G19KT 10SM 20/11 A2976 RMK AO2 T01950110
KMDD 200915Z AUTO 19013G17KT 10SM 19/12 A2976 RMK AO2 T01930121
KMDD 200855Z AUTO 20013G20KT 10SM 19/13 A2975 RMK AO2 T01930131
KMDD 200835Z AUTO 19016G23KT 10SM 19/14 A2975 RMK AO2 T01930138
KMDD 200815Z AUTO 19016G24KT 10SM 19/14 A2976 RMK AO2 T01920140
KMDD 200755Z AUTO 18017G21KT 10SM 19/14 A2975 RMK AO2 T01910141
KMDD 200735Z AUTO 18017G25KT 10SM 19/14 A2975 RMK AO2 T01920141
KMDD 200715Z AUTO 18018G23KT 10SM 19/14 A2976 RMK AO2 T01930140
KMDD 200655Z AUTO 18015G23KT 10SM 19/14 A2975 RMK AO2 T01940137
KMDD 200635Z AUTO 17017G23KT 10SM 20/14 A2975 RMK AO2 T01960135
KMDD 200615Z AUTO 18017G27KT 10SM 20/13 A2974 RMK AO2 T01960133
KMDD 200555Z AUTO 18018G25KT 10SM 20/13 A2974 RMK AO2 T01970126 10228 20197 402550150
KMDD 200535Z AUTO 18018G26KT 10SM 20/12 A2974 RMK AO2 T02000120
KMDD 200515Z AUTO 18019G24KT 10SM 20/10 A2974 RMK AO2 T02000103
KMDD 200455Z AUTO 18015G21KT 10SM 20/09 A2974 RMK AO2 T02020090
KMDD 200435Z AUTO 18015G21KT 10SM 21/08 A2974 RMK AO2 T02050079
KMDD 200415Z AUTO 18015G20KT 10SM 21/06 A2975 RMK AO2 T02070061
KMDD 200355Z AUTO 19015G21KT 10SM 22/06 A2975 RMK AO2 T02160055
KMDD 200335Z AUTO 19017G21KT 10SM 22/06 A2974 RMK AO2 T02150057
KMDD 200315Z AUTO 19014KT 10SM 21/06 A2974 RMK AO2 T02090062
KMDD 200255Z AUTO 18016G21KT 10SM 21/07 A2973 RMK AO2 T02080065
KMDD 200235Z AUTO 19014G19KT 10SM 21/07 A2973 RMK AO2 T02070071
KMDD 200215Z AUTO 19011G22KT 10SM 21/08 A2973 RMK AO2 T02050084
KMDD 200155Z AUTO 19012G18KT 10SM 20/09 A2972 RMK AO2 T02020090
KMDD 200135Z AUTO 18012G17KT 10SM 20/10 A2972 RMK AO2 T01990096
KMDD 200115Z AUTO 18012G15KT 10SM 20/10 A2972 RMK AO2 T02000098
KMDD 200055Z AUTO 18013G20KT 10SM 21/09 A2973 RMK AO2 T02060090
KMDD 200035Z AUTO 18014G21KT 10SM 21/08 A2973 RMK AO2 T02130083
KMDD 200015Z AUTO 18014G22KT 10SM 22/05 A2972 RMK AO2 T02240054
KMDD 192355Z AUTO 18013G24KT 10SM 23/05 A2972 RMK AO2 T02280047 10255 20219
KMDD 192335Z AUTO 19016G25KT 10SM 23/04 A2971 RMK AO2 T02320044
KMDD 192315Z AUTO 20013G21KT 10SM 24/04 A2971 RMK AO2 T02350039
KMDD 192255Z AUTO 19019G26KT 10SM 24/03 A2970 RMK AO2 T02400027
KMDD 192235Z AUTO 19023G29KT 10SM 24/03 A2971 RMK AO2 T02400026
KMDD 192215Z AUTO 20018G23KT 10SM 24/02 A2972 RMK AO2 T02430020
KMDD 192155Z AUTO 20014G20KT 10SM 25/02 A2972 RMK AO2 T02450019
KMDD 192135Z AUTO 22013G23KT 10SM 25/01 A2971 RMK AO2 T02470012
KMDD 192115Z AUTO 23012G21KT 10SM 25/06 A2972 RMK AO2 T02530056
KMDD 192055Z AUTO 19014G20KT 10SM 26/07 A2974 RMK AO2 T02550071
KMDD 192035Z AUTO 18016G19KT 10SM 25/07 A2974 RMK AO2 T02470067
KMDD 192015Z AUTO 18011G17KT 10SM 25/07 A2975 RMK AO2 T02450074
KMDD 191955Z AUTO 19011G17KT 10SM 23/07 A2977 RMK AO2 T02330071
KMDD 191935Z AUTO 21010KT 10SM 23/08 A2978 RMK AO2 T02320081
KMDD 191915Z AUTO 22012KT 10SM 23/09 A2978 RMK AO2 T02280092
KMDD 191855Z AUTO 21010KT 10SM 23/09 A2979 RMK AO2 T02280093
KMDD 191835Z AUTO 20009KT 10SM 22/12 A2981 RMK AO2 T02240120
KMDD 191815Z AUTO 17012KT 10SM 22/12 A2982 RMK AO2 T02220119
KMDD 191755Z AUTO 19009G15KT 10SM 22/12 A2982 RMK AO2 T02180121 10222 20150
KMDD 191735Z AUTO 20008G15KT 10SM 22/13 A2983 RMK AO2 T02180133
KMDD 191715Z AUTO 20009KT 10SM 21/14 A2984 RMK AO2 T02050140
KMDD 191655Z AUTO 22008KT 10SM 20/14 A2984 RMK AO2 T01950142